createdAt,value
2024-02-27T00:00:48.072Z,20.90
2024-02-27T00:03:35.432Z,19.90
2024-02-27T00:06:22.981Z,21.42
2024-02-27T00:09:14.556Z,19.55
2024-02-27T00:12:01.954Z,19.52
2024-02-27T00:14:49.272Z,22.35
2024-02-27T00:17:36.653Z,20.10
2024-02-27T00:20:23.887Z,20.92
2024-02-27T00:23:13.322Z,21.45
2024-02-27T00:26:00.948Z,23.30
2024-02-27T00:28:48.102Z,20.13
2024-02-27T00:31:35.250Z,23.75
2024-02-27T00:34:22.488Z,22.92
2024-02-27T00:37:09.720Z,23.55
2024-02-27T00:39:57.772Z,21.02
2024-02-27T00:42:45.584Z,22.00
2024-02-27T00:45:32.973Z,23.45
2024-02-27T00:48:20.307Z,22.13
2024-02-27T00:51:07.530Z,22.63
2024-02-27T00:53:54.863Z,22.33
2024-02-27T00:56:42.210Z,23.23
2024-02-27T00:59:29.427Z,21.40
2024-02-27T01:02:16.601Z,22.02
2024-02-27T01:05:05.024Z,20.92
2024-02-27T01:07:52.274Z,24.45
2024-02-27T01:10:39.464Z,19.80
2024-02-27T01:13:27.508Z,23.45
2024-02-27T01:16:14.702Z,22.40
2024-02-27T01:19:02.012Z,23.60
2024-02-27T01:21:49.359Z,25.13
2024-02-27T01:24:37.004Z,23.10
2024-02-27T01:27:24.988Z,27.52
2024-02-27T01:30:12.696Z,23.10
2024-02-27T01:33:00.258Z,23.33
2024-02-27T01:35:48.942Z,23.17
2024-02-27T01:38:36.266Z,23.98
2024-02-27T01:41:23.503Z,23.40
2024-02-27T01:44:10.699Z,22.13
2024-02-27T01:46:59.899Z,25.88
2024-02-27T01:49:49.434Z,26.75
2024-02-27T01:52:36.782Z,23.00
2024-02-27T01:55:23.995Z,26.05
2024-02-27T01:58:13.116Z,21.42
2024-02-27T02:01:03.981Z,23.05
2024-02-27T02:03:53.427Z,22.13
2024-02-27T02:06:42.890Z,24.17
2024-02-27T02:09:30.125Z,21.27
2024-02-27T02:12:17.516Z,23.63
2024-02-27T02:15:06.224Z,23.25
2024-02-27T02:17:54.025Z,23.70
2024-02-27T02:20:41.197Z,22.20
2024-02-27T02:23:30.337Z,24.23
2024-02-27T02:26:19.599Z,27.10
2024-02-27T02:29:07.973Z,22.75
2024-02-27T02:31:55.152Z,22.33
2024-02-27T02:34:42.365Z,24.25
2024-02-27T02:37:30.554Z,24.70
2024-02-27T02:40:20.939Z,24.27
2024-02-27T02:43:08.114Z,21.65
2024-02-27T02:45:55.278Z,23.17
2024-02-27T02:48:42.540Z,23.30
2024-02-27T02:51:33.070Z,26.83
2024-02-27T02:54:20.274Z,24.70
2024-02-27T02:57:07.459Z,23.40
2024-02-27T02:59:55.666Z,22.08
2024-02-27T03:02:42.853Z,23.38
2024-02-27T03:05:30.038Z,21.40
2024-02-27T03:08:17.161Z,21.70
2024-02-27T03:11:05.902Z,20.10
2024-02-27T03:13:53.209Z,27.20
2024-02-27T03:16:40.329Z,22.33
2024-02-27T03:19:28.258Z,23.50
2024-02-27T03:22:15.608Z,24.27
2024-02-27T03:25:06.821Z,24.20
2024-02-27T03:30:42.624Z,24.80
2024-02-27T03:33:30.067Z,21.95
2024-02-27T03:36:17.535Z,24.10
2024-02-27T03:39:05.991Z,24.10
2024-02-27T03:41:53.247Z,23.77
2024-02-27T03:44:46.840Z,22.90
2024-02-27T03:47:34.084Z,29.17
2024-02-27T03:50:21.330Z,23.05
2024-02-27T03:53:08.524Z,25.52
2024-02-27T03:55:55.824Z,22.85
2024-02-27T03:58:43.017Z,27.02
2024-02-27T04:01:30.340Z,25.35
2024-02-27T04:04:17.649Z,24.52
2024-02-27T04:07:05.486Z,24.67
2024-02-27T04:09:52.712Z,25.70
2024-02-27T04:12:39.976Z,24.40
2024-02-27T04:15:27.500Z,22.98
2024-02-27T04:18:14.825Z,25.52
2024-02-27T04:21:02.254Z,26.75
2024-02-27T04:23:49.616Z,23.35
2024-02-27T04:26:36.925Z,25.42
2024-02-27T04:29:24.560Z,20.05
2024-02-27T04:32:11.909Z,23.25
2024-02-27T04:34:59.165Z,23.75
2024-02-27T04:37:46.388Z,23.88
2024-02-27T04:40:33.592Z,24.52
2024-02-27T04:43:22.109Z,23.13
2024-02-27T04:46:09.315Z,25.13
2024-02-27T04:48:56.507Z,26.92
2024-02-27T04:51:43.944Z,27.13
2024-02-27T04:54:31.126Z,25.25
2024-02-27T04:57:19.133Z,25.40
2024-02-27T05:00:11.234Z,26.05
2024-02-27T05:02:58.734Z,23.67
2024-02-27T05:05:45.906Z,24.13
2024-02-27T05:08:33.040Z,22.05
2024-02-27T05:11:20.401Z,26.38
2024-02-27T05:14:07.761Z,24.92
2024-02-27T05:16:55.291Z,27.58
2024-02-27T05:19:42.493Z,24.08
2024-02-27T05:22:29.708Z,26.05
2024-02-27T05:25:16.964Z,27.48
2024-02-27T05:28:04.583Z,26.30
2024-02-27T05:30:55.354Z,23.08
2024-02-27T05:33:42.715Z,24.67
2024-02-27T05:36:30.274Z,24.05
2024-02-27T05:39:17.996Z,25.50
2024-02-27T05:42:05.365Z,26.33
2024-02-27T05:44:52.560Z,27.85
2024-02-27T05:47:39.873Z,27.88
2024-02-27T05:50:27.228Z,30.58
2024-02-27T05:53:14.424Z,26.85
2024-02-27T05:56:02.014Z,28.15
2024-02-27T05:58:49.596Z,30.00
2024-02-27T06:01:37.299Z,26.63
2024-02-27T06:04:24.559Z,30.17
2024-02-27T06:07:12.977Z,27.80
2024-02-27T06:10:00.245Z,27.60
2024-02-27T06:12:47.466Z,28.58
2024-02-27T06:15:35.290Z,28.88
2024-02-27T06:18:22.679Z,31.63
2024-02-27T06:21:29.277Z,29.58
2024-02-27T06:24:16.551Z,38.95
2024-02-27T06:27:04.288Z,27.27
2024-02-27T06:29:51.538Z,30.50
2024-02-27T06:32:38.797Z,30.23
2024-02-27T06:35:27.117Z,33.53
2024-02-27T06:38:14.430Z,30.60
2024-02-27T06:41:01.887Z,32.72
2024-02-27T06:43:49.324Z,30.38
2024-02-27T06:46:36.494Z,32.28
2024-02-27T06:49:24.158Z,31.60
2024-02-27T06:52:11.458Z,32.92
2024-02-27T06:54:58.899Z,31.35
2024-02-27T06:57:46.850Z,31.77
2024-02-27T07:00:34.957Z,30.60
2024-02-27T07:03:22.378Z,30.40
2024-02-27T07:06:09.676Z,32.92
2024-02-27T07:08:59.541Z,29.83
2024-02-27T07:11:46.883Z,30.00
2024-02-27T07:14:34.566Z,28.75
2024-02-27T07:17:24.221Z,28.10
2024-02-27T07:20:12.359Z,30.83
2024-02-27T07:23:00.778Z,32.28
2024-02-27T07:25:48.061Z,29.00
2024-02-27T07:28:35.274Z,29.02
2024-02-27T07:31:23.299Z,32.00
2024-02-27T07:34:12.717Z,29.35
2024-02-27T07:37:01.364Z,31.20
2024-02-27T07:39:49.941Z,27.90
2024-02-27T07:42:37.755Z,34.00
2024-02-27T07:45:25.167Z,32.30
2024-02-27T07:48:12.541Z,27.48
2024-02-27T07:50:59.816Z,32.13
2024-02-27T07:53:47.295Z,29.42
2024-02-27T07:56:34.551Z,29.98
2024-02-27T07:59:21.763Z,29.05
2024-02-27T08:02:08.953Z,29.17
2024-02-27T08:04:56.110Z,29.25
2024-02-27T08:07:43.374Z,28.30
2024-02-27T08:10:30.736Z,26.67
2024-02-27T08:13:20.620Z,26.75
2024-02-27T08:16:10.089Z,26.67
2024-02-27T08:18:57.415Z,35.85
2024-02-27T08:21:44.784Z,29.27
2024-02-27T08:24:34.292Z,23.23
2024-02-27T08:27:21.635Z,26.95
2024-02-27T08:30:09.616Z,25.27
2024-02-27T08:32:58.847Z,25.83
2024-02-27T08:35:46.244Z,27.60
2024-02-27T08:38:34.100Z,27.33
2024-02-27T08:41:22.791Z,27.38
2024-02-27T08:44:10.083Z,24.00
2024-02-27T08:47:00.285Z,22.15
2024-02-27T08:49:47.695Z,24.23
2024-02-27T08:52:35.059Z,25.90
2024-02-27T08:55:26.171Z,21.02
2024-02-27T08:58:13.429Z,21.27
2024-02-27T09:01:00.727Z,22.08
2024-02-27T09:03:50.156Z,20.48
2024-02-27T09:06:44.405Z,23.80
2024-02-27T09:09:31.673Z,22.58
2024-02-27T09:12:19.061Z,23.60
2024-02-27T09:15:09.009Z,22.77
2024-02-27T09:17:56.533Z,20.65
2024-02-27T09:20:44.736Z,21.73
2024-02-27T09:23:32.008Z,20.85
2024-02-27T09:26:19.222Z,21.67
2024-02-27T09:29:06.387Z,20.98
2024-02-27T09:31:53.592Z,22.30
2024-02-27T09:34:42.379Z,19.00
2024-02-27T09:37:29.706Z,19.55
2024-02-27T09:40:17.294Z,19.25
2024-02-27T09:43:15.126Z,21.67
2024-02-27T09:46:06.086Z,20.10
2024-02-27T09:48:56.889Z,19.55
2024-02-27T09:51:47.462Z,19.58
2024-02-27T09:54:37.431Z,20.17
2024-02-27T09:57:27.369Z,19.80
2024-02-27T10:00:18.412Z,19.55
2024-02-27T10:03:09.109Z,20.02
2024-02-27T10:05:57.986Z,18.92
2024-02-27T10:08:57.105Z,18.80
2024-02-27T10:11:45.379Z,20.67
2024-02-27T10:14:37.404Z,21.40
2024-02-27T10:17:25.125Z,21.13
2024-02-27T10:20:12.623Z,26.25
2024-02-27T10:23:00.272Z,19.98
2024-02-27T10:25:47.528Z,20.05
2024-02-27T10:28:35.816Z,19.10
2024-02-27T10:31:23.077Z,18.55
2024-02-27T10:34:10.472Z,18.27
2024-02-27T10:37:00.988Z,18.63
2024-02-27T10:39:48.590Z,19.52
2024-02-27T10:42:38.662Z,18.48
2024-02-27T10:45:26.313Z,17.77
2024-02-27T10:48:14.557Z,16.88
2024-02-27T10:51:03.716Z,18.27
2024-02-27T10:53:54.112Z,19.80
2024-02-27T10:56:41.956Z,19.33
2024-02-27T10:59:32.907Z,17.55
2024-02-27T11:02:21.496Z,17.65
2024-02-27T11:05:12.467Z,14.90
2024-02-27T11:08:01.426Z,15.48
2024-02-27T11:10:49.364Z,18.42
2024-02-27T11:13:42.675Z,16.52
2024-02-27T11:16:32.224Z,17.40
2024-02-27T11:19:26.081Z,15.88
2024-02-27T11:22:14.004Z,16.50
2024-02-27T11:25:01.611Z,16.15
2024-02-27T11:27:51.876Z,17.70
2024-02-27T11:30:41.794Z,15.85
2024-02-27T11:33:29.040Z,16.85
2024-02-27T11:36:16.412Z,18.08
2024-02-27T11:39:03.753Z,15.63
2024-02-27T11:41:52.883Z,15.63
2024-02-27T11:45:10.256Z,15.32
2024-02-27T11:47:57.586Z,16.33
2024-02-27T11:50:46.769Z,14.88
2024-02-27T11:53:34.782Z,16.30
2024-02-27T11:56:24.373Z,14.60
2024-02-27T11:59:12.998Z,14.77
2024-02-27T12:02:05.417Z,19.38
2024-02-27T12:04:54.953Z,16.45
2024-02-27T12:07:42.323Z,17.60
2024-02-27T12:10:30.033Z,17.10
2024-02-27T12:13:17.833Z,17.75
2024-02-27T12:16:06.185Z,16.05
2024-02-27T12:18:55.532Z,17.05
2024-02-27T12:21:43.349Z,14.95
2024-02-27T12:24:30.591Z,15.98
2024-02-27T12:27:18.008Z,15.20
2024-02-27T12:30:14.314Z,15.38
2024-02-27T12:33:02.718Z,16.50
2024-02-27T12:35:49.865Z,17.00
2024-02-27T12:38:38.131Z,17.30
2024-02-27T12:41:26.388Z,15.55
2024-02-27T12:44:14.879Z,15.32
2024-02-27T12:47:02.166Z,14.50
2024-02-27T12:49:49.592Z,15.45
2024-02-27T12:52:38.403Z,15.68
2024-02-27T12:55:26.956Z,16.98
2024-02-27T12:58:24.769Z,16.02
2024-02-27T13:01:12.822Z,15.95
2024-02-27T13:04:00.232Z,14.57
2024-02-27T13:06:47.707Z,15.32
2024-02-27T13:09:35.133Z,17.67
2024-02-27T13:12:22.449Z,15.40
2024-02-27T13:15:09.888Z,14.82
2024-02-27T13:17:57.121Z,16.50
2024-02-27T13:20:46.820Z,15.43
2024-02-27T13:23:34.215Z,14.60
2024-02-27T13:26:22.195Z,15.55
2024-02-27T13:29:09.342Z,17.90
2024-02-27T13:31:56.673Z,16.80
2024-02-27T13:34:47.101Z,17.73
2024-02-27T13:37:36.144Z,16.30
2024-02-27T13:40:23.495Z,18.30
2024-02-27T13:43:11.491Z,17.80
2024-02-27T13:46:00.564Z,15.73
2024-02-27T13:48:49.791Z,15.43
2024-02-27T13:51:41.978Z,16.70
2024-02-27T13:54:29.504Z,17.90
2024-02-27T13:57:16.777Z,16.63
2024-02-27T14:00:06.206Z,16.35
2024-02-27T14:02:59.763Z,15.80
2024-02-27T14:05:47.147Z,15.93
2024-02-27T14:08:35.320Z,16.83
2024-02-27T14:11:23.061Z,16.10
2024-02-27T14:14:17.351Z,15.43
2024-02-27T14:17:08.516Z,15.55
2024-02-27T14:19:55.871Z,16.58
2024-02-27T14:22:43.170Z,16.55
2024-02-27T14:25:30.358Z,16.67
2024-02-27T14:28:17.683Z,17.45
2024-02-27T14:31:04.954Z,16.33
2024-02-27T14:33:52.221Z,19.63
2024-02-27T14:36:39.578Z,18.52
2024-02-27T14:39:27.192Z,17.13
2024-02-27T14:42:14.553Z,16.90
2024-02-27T14:45:02.951Z,16.77
2024-02-27T14:47:50.314Z,17.63
2024-02-27T14:50:37.522Z,17.23
2024-02-27T14:53:24.694Z,15.63
2024-02-27T14:56:11.980Z,13.75
2024-02-27T14:58:59.273Z,13.27
2024-02-27T15:01:53.832Z,12.77
2024-02-27T15:04:47.384Z,14.93
2024-02-27T15:07:34.844Z,15.15
2024-02-27T15:10:22.094Z,17.92
2024-02-27T15:13:10.770Z,12.10
2024-02-27T15:15:58.183Z,13.10
2024-02-27T15:18:45.532Z,12.85
2024-02-27T15:21:33.296Z,13.85
2024-02-27T15:24:20.670Z,12.00
2024-02-27T15:27:08.081Z,14.45
2024-02-27T15:29:56.860Z,12.95
2024-02-27T15:32:44.171Z,13.25
2024-02-27T15:35:31.414Z,14.63
2024-02-27T15:38:18.662Z,12.48
2024-02-27T15:41:05.967Z,14.13
2024-02-27T15:43:54.919Z,13.05
2024-02-27T15:46:43.329Z,14.85
2024-02-27T15:49:31.072Z,13.25
2024-02-27T15:52:19.098Z,13.70
2024-02-27T15:55:06.470Z,15.98
2024-02-27T15:57:53.840Z,16.10
2024-02-27T16:00:41.311Z,13.75
2024-02-27T16:03:52.333Z,17.58
2024-02-27T16:07:08.483Z,17.05
2024-02-27T16:09:55.748Z,15.25
2024-02-27T16:12:45.087Z,16.17
2024-02-27T16:15:32.487Z,16.20
2024-02-27T16:18:19.881Z,16.35
2024-02-27T16:21:19.840Z,18.45
2024-02-27T16:24:09.295Z,16.80
2024-02-27T16:26:58.220Z,18.58
2024-02-27T16:29:45.558Z,16.90
2024-02-27T16:32:32.750Z,16.85
2024-02-27T16:35:20.051Z,18.73
2024-02-27T16:38:07.258Z,21.50
2024-02-27T16:40:54.566Z,20.48
2024-02-27T16:43:41.836Z,19.50
2024-02-27T16:46:29.801Z,21.75
2024-02-27T16:49:17.209Z,20.95
2024-02-27T16:52:04.850Z,23.35
2024-02-27T16:54:52.495Z,18.45
2024-02-27T16:57:39.870Z,22.52
2024-02-27T17:00:27.309Z,24.00
2024-02-27T17:03:14.656Z,26.10
2024-02-27T17:06:04.432Z,25.48
2024-02-27T17:08:51.813Z,28.65
2024-02-27T17:11:39.185Z,27.40
2024-02-27T17:14:26.441Z,26.73
2024-02-27T17:17:14.636Z,25.73
2024-02-27T17:20:02.138Z,24.23
2024-02-27T17:22:49.298Z,35.97
2024-02-27T17:25:36.651Z,29.75
2024-02-27T17:28:23.853Z,30.00
2024-02-27T17:31:11.086Z,34.75
2024-02-27T17:33:59.485Z,29.58
2024-02-27T17:36:47.064Z,33.55
2024-02-27T17:39:34.380Z,33.85
2024-02-27T17:42:23.159Z,28.27
2024-02-27T17:45:11.125Z,29.52
2024-02-27T17:47:58.500Z,28.00
2024-02-27T17:50:45.761Z,28.13
2024-02-27T17:53:33.035Z,29.60
2024-02-27T17:56:20.603Z,26.92
2024-02-27T17:59:07.866Z,28.35
2024-02-27T18:01:55.145Z,29.05
2024-02-27T18:04:42.887Z,27.35
2024-02-27T18:07:30.412Z,30.23
2024-02-27T18:10:20.561Z,29.33
2024-02-27T18:13:07.853Z,30.67
2024-02-27T18:15:55.111Z,27.00
2024-02-27T18:18:43.837Z,28.08
2024-02-27T18:21:31.131Z,27.83
2024-02-27T18:24:18.686Z,32.10
2024-02-27T18:27:06.508Z,29.95
2024-02-27T18:29:53.829Z,31.42
2024-02-27T18:32:41.908Z,28.88
2024-02-27T18:35:31.434Z,29.25
2024-02-27T18:38:21.023Z,32.33
2024-02-27T18:41:08.482Z,33.00
2024-02-27T18:43:55.773Z,35.10
2024-02-27T18:46:43.056Z,34.03
2024-02-27T18:49:30.408Z,33.40
2024-02-27T18:52:19.143Z,35.55
2024-02-27T18:55:06.580Z,31.55
2024-02-27T18:57:53.869Z,28.98
2024-02-27T19:00:41.489Z,32.08
2024-02-27T19:03:28.866Z,37.80
2024-02-27T19:06:16.195Z,38.42
2024-02-27T19:09:03.752Z,34.40
2024-02-27T19:11:51.561Z,40.97
2024-02-27T19:14:39.043Z,35.22
2024-02-27T19:17:26.518Z,32.95
2024-02-27T19:20:13.774Z,35.13
2024-02-27T19:23:01.040Z,35.42
2024-02-27T19:25:48.252Z,36.50
2024-02-27T19:28:40.725Z,39.30
2024-02-27T19:31:31.541Z,34.88
2024-02-27T19:34:18.819Z,40.58
2024-02-27T19:37:05.992Z,40.53
2024-02-27T19:39:53.581Z,38.72
2024-02-27T19:42:40.912Z,39.70
2024-02-27T19:45:28.276Z,36.22
2024-02-27T19:48:16.617Z,38.60
2024-02-27T19:51:04.294Z,40.05
2024-02-27T19:53:53.841Z,36.10
2024-02-27T19:56:42.217Z,42.38
2024-02-27T19:59:29.778Z,40.97
2024-02-27T20:02:17.004Z,36.35
2024-02-27T20:05:04.658Z,39.25
2024-02-27T20:07:54.961Z,44.75
2024-02-27T20:10:42.239Z,41.55
2024-02-27T20:13:29.406Z,42.13
2024-02-27T20:16:18.241Z,40.72
2024-02-27T20:19:06.194Z,39.47
2024-02-27T20:21:57.401Z,45.08
2024-02-27T20:24:45.445Z,44.28
2024-02-27T20:27:32.794Z,41.65
2024-02-27T20:30:24.687Z,43.85
2024-02-27T20:33:14.074Z,45.13
2024-02-27T20:36:02.139Z,45.75
2024-02-27T20:38:49.336Z,43.58
2024-02-27T20:41:36.668Z,47.38
2024-02-27T20:44:24.951Z,42.08
2024-02-27T20:47:12.201Z,42.80
2024-02-27T20:49:59.392Z,46.00
2024-02-27T20:52:46.566Z,43.55
2024-02-27T20:55:36.325Z,44.85
2024-02-27T20:58:23.544Z,43.30
2024-02-27T21:01:10.790Z,42.35
2024-02-27T21:03:58.153Z,46.55
2024-02-27T21:06:45.575Z,50.55
2024-02-27T21:09:33.056Z,47.25
2024-02-27T21:12:20.500Z,45.90
2024-02-27T21:15:09.350Z,43.97
2024-02-27T21:17:56.633Z,49.90
2024-02-27T21:20:44.534Z,41.35
2024-02-27T21:23:31.771Z,47.67
2024-02-27T21:26:18.958Z,43.92
2024-02-27T21:29:06.303Z,43.35
2024-02-27T21:31:53.589Z,45.78
2024-02-27T21:34:41.406Z,49.78
2024-02-27T21:37:30.377Z,50.78
2024-02-27T21:40:18.518Z,44.13
2024-02-27T21:43:05.700Z,49.22
2024-02-27T21:45:52.991Z,45.80
2024-02-27T21:48:40.159Z,48.72
2024-02-27T21:51:28.644Z,48.72
2024-02-27T21:54:16.207Z,51.55
2024-02-27T21:57:03.501Z,49.58
2024-02-27T21:59:50.696Z,47.55
2024-02-27T22:02:38.900Z,46.70
2024-02-27T22:05:26.063Z,56.28
2024-02-27T22:08:13.275Z,48.42
2024-02-27T22:11:00.446Z,48.65
2024-02-27T22:13:47.624Z,49.10
2024-02-27T22:16:35.852Z,45.90
2024-02-27T22:19:23.121Z,51.17
2024-02-27T22:22:10.336Z,45.22
2024-02-27T22:24:57.528Z,52.45
2024-02-27T22:27:44.784Z,50.30
2024-02-27T22:30:31.984Z,52.63
2024-02-27T22:33:19.343Z,49.70
2024-02-27T22:36:07.478Z,48.50
2024-02-27T22:38:54.592Z,48.72
2024-02-27T22:41:41.884Z,48.55
2024-02-27T22:44:29.085Z,47.72
2024-02-27T22:47:16.245Z,50.88
2024-02-27T22:50:04.160Z,52.65
2024-02-27T22:52:51.755Z,47.45
2024-02-27T22:55:39.456Z,56.20
2024-02-27T22:58:26.808Z,51.97
2024-02-27T23:01:14.070Z,54.60
2024-02-27T23:04:01.242Z,47.90
2024-02-27T23:06:48.429Z,57.45
2024-02-27T23:09:35.750Z,54.55
2024-02-27T23:12:23.098Z,52.42
2024-02-27T23:15:10.592Z,52.08
2024-02-27T23:17:57.834Z,53.28
2024-02-27T23:20:47.170Z,54.25
2024-02-27T23:23:34.464Z,60.53
2024-02-27T23:26:21.747Z,52.45
2024-02-27T23:29:09.500Z,54.70
2024-02-27T23:31:56.672Z,53.65
2024-02-27T23:34:43.918Z,57.75
2024-02-27T23:37:31.284Z,56.08
2024-02-27T23:40:19.115Z,56.13
2024-02-27T23:43:06.340Z,59.10
2024-02-27T23:45:54.678Z,51.80
2024-02-27T23:48:42.048Z,49.60
2024-02-27T23:51:29.558Z,55.72
2024-02-27T23:54:16.772Z,51.55
2024-02-27T23:57:06.045Z,50.67
2024-02-27T23:59:53.905Z,53.38
